Time;durP1;ratioP1;P1;durP2;ratioP2;P2;SDS_P1;SDS_P2;PMS_P1;PMS_P2;Temp;Humidity;BMP_temperature;BMP_pressure;BME280_temperature;BME280_humidity;BME280_pressure;Samples;Min_cycle;Max_cycle;Signal;HPM_P1;HPM_P2
2021/09/24 00:01:16;;;;;;;;;;;;;;;6.82;79.57;97450.41;117064;1177;59531;-71
2021/09/24 00:03:46;;;;;;;;;;;;;;;6.86;78.42;97443.61;117065;1177;71375;-72
2021/09/24 00:06:15;;;;;;;;;;;;;;;6.86;78.34;97437.36;117120;1177;69112;-71
2021/09/24 00:08:46;;;;;;;;;;;;;;;6.85;78.25;97421.16;117082;1177;68502;-72
2021/09/24 00:11:16;;;;;;;;;;;;;;;6.86;78.35;97408.41;117019;1177;59535;-73
2021/09/24 00:13:45;;;;;;;;;;;;;;;6.82;78.71;97398.46;116891;1179;59469;-72
2021/09/24 00:16:29;;;;;;;;;;;;;;;6.76;79.66;97400.54;117089;1177;71157;-71
2021/09/24 00:18:58;;;;;;;;;;;;;;;6.75;79.04;97391.03;117054;1177;69106;-72
2021/09/24 00:21:28;;;;;;;;;;;;;;;6.78;78.56;97382.77;117025;1177;68486;-71
2021/09/24 00:23:58;;;;;;;;;;;;;;;6.79;78.52;97380.94;117091;1177;59467;-71
2021/09/24 00:26:29;;;;;;;;;;;;;;;6.81;78.30;97383.46;117148;1177;59526;-72
2021/09/24 00:28:58;;;;;;;;;;;;;;;6.80;78.17;97384.36;117059;1177;71387;-72
2021/09/24 00:31:28;;;;;;;;;;;;;;;6.83;78.01;97384.84;117040;1177;68722;-71
2021/09/24 00:33:58;;;;;;;;;;;;;;;6.82;78.52;97392.91;116889;1179;69178;-71
2021/09/24 00:36:27;;;;;;;;;;;;;;;6.83;77.97;97396.64;117011;1177;59500;-71
2021/09/24 00:38:57;;;;;;;;;;;;;;;6.84;77.86;97392.46;117044;1177;59536;-72
2021/09/24 00:41:26;;;;;;;;;;;;;;;6.83;78.16;97388.17;117020;1177;71200;-71
2021/09/24 00:43:55;;;;;;;;;;;;;;;6.84;78.21;97391.42;116981;1177;68470;-73
2021/09/24 00:46:34;;;;;;;;;;;;;;;6.83;78.55;97405.48;117060;1177;68452;-71
2021/09/24 00:49:19;;;;;;;;;;;;;;;6.86;78.07;97410.02;117029;1177;59519;-71
2021/09/24 00:51:49;;;;;;;;;;;;;;;6.87;78.57;97406.96;116978;1177;59535;-72
2021/09/24 00:54:19;;;;;;;;;;;;;;;6.87;79.53;97396.41;117107;1177;71264;-74
2021/09/24 00:56:52;;;;;;;;;;;;;;;6.89;79.17;97397.85;116985;1177;68448;-71
2021/09/24 00:59:22;;;;;;;;;;;;;;;6.92;78.90;97391.29;117003;1177;68452;-71
2021/09/24 01:01:51;;;;;;;;;;;;;;;6.95;79.16;97391.13;116934;1177;59500;-71
2021/09/24 01:04:22;;;;;;;;;;;;;;;6.97;79.21;97392.56;117076;1177;59465;-71
2021/09/24 01:06:53;;;;;;;;;;;;;;;6.99;78.79;97384.98;117109;1177;69936;-71
2021/09/24 01:09:24;;;;;;;;;;;;;;;7.03;78.12;97377.30;117071;1177;70242;-71
2021/09/24 01:11:54;;;;;;;;;;;;;;;7.05;78.24;97373.88;116848;1179;69231;-71
2021/09/24 01:14:26;;;;;;;;;;;;;;;7.09;77.58;97360.98;116969;1177;59463;-71
2021/09/24 01:16:57;;;;;;;;;;;;;;;7.12;78.29;97353.38;117144;1177;58998;-72
2021/09/24 01:19:28;;;;;;;;;;;;;;;7.11;78.18;97349.43;117013;1177;71386;-71
2021/09/24 01:21:58;;;;;;;;;;;;;;;7.11;79.11;97339.04;117062;1177;69184;-71
2021/09/24 01:24:28;;;;;;;;;;;;;;;7.12;78.86;97332.75;116998;1177;69260;-71
2021/09/24 01:26:58;;;;;;;;;;;;;;;7.14;78.15;97326.68;116983;1178;59521;-70
2021/09/24 01:29:28;;;;;;;;;;;;;;;7.16;77.95;97319.81;117058;1176;59462;-71
2021/09/24 01:31:58;;;;;;;;;;;;;;;7.18;77.90;97316.45;117105;1177;70587;-71
2021/09/24 01:34:28;;;;;;;;;;;;;;;7.16;78.33;97311.00;117459;1177;69185;-70
2021/09/24 01:36:57;;;;;;;;;;;;;;;7.19;78.03;97306.88;116964;1177;69250;-73
2021/09/24 01:39:26;;;;;;;;;;;;;;;7.21;77.81;97292.69;117083;1177;59552;-71
2021/09/24 01:41:57;;;;;;;;;;;;;;;7.22;77.79;97282.60;117070;1177;59493;-71
2021/09/24 01:44:26;;;;;;;;;;;;;;;7.23;77.85;97265.52;116959;1177;71560;-74
2021/09/24 01:46:57;;;;;;;;;;;;;;;7.20;78.18;97268.33;117100;1177;69480;-71
2021/09/24 01:49:27;;;;;;;;;;;;;;;7.20;77.89;97275.60;117035;1177;69052;-72
2021/09/24 01:51:57;;;;;;;;;;;;;;;7.22;77.71;97269.79;117052;1177;59533;-71
2021/09/24 01:54:27;;;;;;;;;;;;;;;7.21;77.55;97275.88;117087;1177;59483;-71
2021/09/24 01:56:56;;;;;;;;;;;;;;;7.21;77.44;97275.53;116876;1179;71363;-70
2021/09/24 01:59:25;;;;;;;;;;;;;;;7.21;77.14;97276.23;117025;1177;69112;-74
2021/09/24 02:01:54;;;;;;;;;;;;;;;7.21;77.06;97266.02;116999;1177;69126;-71
2021/09/24 02:04:24;;;;;;;;;;;;;;;7.22;76.95;97262.33;117086;1177;59509;-74
2021/09/24 02:06:54;;;;;;;;;;;;;;;7.21;76.75;97257.87;117064;1177;59530;-70
2021/09/24 02:09:23;;;;;;;;;;;;;;;7.24;76.50;97255.08;117056;1177;71194;-71
2021/09/24 02:11:53;;;;;;;;;;;;;;;7.24;76.67;97252.31;117123;1177;68422;-73
2021/09/24 02:14:22;;;;;;;;;;;;;;;7.22;76.82;97252.23;117008;1177;69247;-72
2021/09/24 02:16:53;;;;;;;;;;;;;;;7.23;76.81;97257.44;117032;1177;59514;-71
2021/09/24 02:19:23;;;;;;;;;;;;;;;7.22;76.77;97250.36;116861;1179;59554;-71
2021/09/24 02:21:52;;;;;;;;;;;;;;;7.22;76.96;97248.46;117039;1177;71405;-71
2021/09/24 02:24:21;;;;;;;;;;;;;;;7.21;77.11;97256.14;117042;1177;68295;-71
2021/09/24 02:26:51;;;;;;;;;;;;;;;7.18;77.62;97262.91;117023;1177;67425;-70
2021/09/24 02:29:22;;;;;;;;;;;;;;;7.14;78.76;97267.10;117115;1177;59520;-71
2021/09/24 02:31:52;;;;;;;;;;;;;;;7.10;79.17;97266.14;117072;1177;59535;-71
2021/09/24 02:34:22;;;;;;;;;;;;;;;7.07;78.89;97269.23;116991;1177;70853;-71
2021/09/24 02:36:52;;;;;;;;;;;;;;;7.06;78.46;97270.23;117137;1177;69294;-71
2021/09/24 02:39:21;;;;;;;;;;;;;;;7.03;78.16;97270.72;117040;1177;68493;-70
2021/09/24 02:41:51;;;;;;;;;;;;;;;7.02;78.07;97280.67;116946;1177;59558;-70
2021/09/24 02:44:20;;;;;;;;;;;;;;;7.00;78.28;97284.77;116998;1177;59472;-70
2021/09/24 02:46:50;;;;;;;;;;;;;;;7.00;77.74;97287.17;117047;1177;71433;-71
2021/09/24 02:49:19;;;;;;;;;;;;;;;7.00;77.78;97280.13;117011;1177;68294;-70
2021/09/24 02:51:48;;;;;;;;;;;;;;;7.03;77.30;97270.92;116987;1177;69106;-72
2021/09/24 02:54:18;;;;;;;;;;;;;;;7.02;77.25;97264.36;117003;1177;59662;-71
2021/09/24 02:56:47;;;;;;;;;;;;;;;6.98;77.89;97268.27;116978;1177;59468;-70
2021/09/24 02:59:16;;;;;;;;;;;;;;;6.98;77.35;97259.42;117013;1177;71456;-70
2021/09/24 03:01:46;;;;;;;;;;;;;;;6.97;77.45;97251.20;116937;1178;68693;-71
2021/09/24 03:04:16;;;;;;;;;;;;;;;6.93;77.72;97246.05;116985;1177;70208;-72
2021/09/24 03:06:45;;;;;;;;;;;;;;;6.87;77.71;97241.23;116974;1177;59550;-71
2021/09/24 03:09:14;;;;;;;;;;;;;;;6.79;77.78;97250.02;116963;1177;59542;-71
2021/09/24 03:11:43;;;;;;;;;;;;;;;6.72;78.66;97253.91;116960;1177;70419;-71
2021/09/24 03:14:13;;;;;;;;;;;;;;;6.64;78.74;97249.17;117020;1177;67880;-70
2021/09/24 03:16:42;;;;;;;;;;;;;;;6.57;78.70;97234.49;117006;1177;69010;-71
2021/09/24 03:19:17;;;;;;;;;;;;;;;6.53;78.37;97235.81;116982;1177;59610;-71
2021/09/24 03:21:53;;;;;;;;;;;;;;;6.48;78.61;97237.31;117070;1177;59467;-72
2021/09/24 03:24:22;;;;;;;;;;;;;;;6.44;78.53;97242.57;116972;1177;70609;-71
2021/09/24 03:26:51;;;;;;;;;;;;;;;6.41;78.69;97235.33;116948;1177;69216;-71
2021/09/24 03:29:20;;;;;;;;;;;;;;;6.37;78.84;97207.48;116874;1179;69100;-71
2021/09/24 03:31:49;;;;;;;;;;;;;;;6.32;79.59;97187.67;116827;1178;59582;-70
2021/09/24 03:34:18;;;;;;;;;;;;;;;6.23;81.37;97185.47;117021;1177;59533;-71
2021/09/24 03:36:49;;;;;;;;;;;;;;;6.19;80.63;97169.96;116971;1177;71217;-71
2021/09/24 03:39:18;;;;;;;;;;;;;;;6.08;82.48;97168.31;117138;1177;68299;-71
2021/09/24 03:41:47;;;;;;;;;;;;;;;6.04;81.54;97169.30;116993;1177;68315;-70
2021/09/24 03:44:17;;;;;;;;;;;;;;;6.01;81.18;97167.73;116957;1177;59564;-70
2021/09/24 03:46:46;;;;;;;;;;;;;;;5.97;80.86;97166.38;117027;1177;59529;-71
2021/09/24 03:49:15;;;;;;;;;;;;;;;5.92;81.99;97172.02;116960;1177;70558;-71
2021/09/24 03:51:44;;;;;;;;;;;;;;;5.87;82.33;97172.16;117023;1177;69100;-72
2021/09/24 03:54:13;;;;;;;;;;;;;;;5.81;82.25;97167.47;116957;1177;68174;-72
2021/09/24 03:56:43;;;;;;;;;;;;;;;5.77;81.78;97166.66;117068;1177;59544;-71
2021/09/24 03:59:12;;;;;;;;;;;;;;;5.74;81.40;97183.63;117056;1177;59612;-70
2021/09/24 04:01:42;;;;;;;;;;;;;;;5.71;81.74;97178.08;116963;1178;70652;-71
2021/09/24 04:04:17;;;;;;;;;;;;;;;5.64;82.53;97166.88;117071;1177;68453;-70
2021/09/24 04:06:46;;;;;;;;;;;;;;;5.62;81.89;97163.14;117005;1177;68462;-71
2021/09/24 04:09:15;;;;;;;;;;;;;;;5.63;81.13;97166.42;117027;1177;59535;-71
2021/09/24 04:11:44;;;;;;;;;;;;;;;5.60;81.17;97158.95;117027;1177;59442;-73
2021/09/24 04:14:13;;;;;;;;;;;;;;;5.59;81.06;97156.27;116962;1177;70436;-72
2021/09/24 04:16:42;;;;;;;;;;;;;;;5.56;81.70;97162.66;117000;1179;69031;-71
2021/09/24 04:19:10;;;;;;;;;;;;;;;5.53;82.41;97157.15;117014;1177;68513;-71
2021/09/24 04:21:39;;;;;;;;;;;;;;;5.50;82.15;97155.91;117027;1177;59523;-71
2021/09/24 04:24:08;;;;;;;;;;;;;;;5.49;82.06;97155.42;116930;1179;59521;-71
2021/09/24 04:26:37;;;;;;;;;;;;;;;5.49;81.90;97159.40;116976;1177;70429;-71
2021/09/24 04:29:07;;;;;;;;;;;;;;;5.51;80.82;97158.84;117004;1177;69200;-73
2021/09/24 04:31:36;;;;;;;;;;;;;;;5.49;80.95;97154.21;116954;1177;69558;-72
2021/09/24 04:34:05;;;;;;;;;;;;;;;5.50;81.50;97150.23;116904;1177;59536;-71
2021/09/24 04:36:34;;;;;;;;;;;;;;;5.48;82.31;97147.23;116918;1177;59519;-71
2021/09/24 04:39:03;;;;;;;;;;;;;;;5.45;82.73;97146.00;116964;1177;71343;-71
2021/09/24 04:41:33;;;;;;;;;;;;;;;5.45;82.56;97148.95;116916;1177;69208;-72
2021/09/24 04:44:01;;;;;;;;;;;;;;;5.43;83.34;97147.52;116905;1177;69327;-70
2021/09/24 04:46:30;;;;;;;;;;;;;;;5.45;82.61;97150.17;116993;1177;59547;-73
2021/09/24 04:48:59;;;;;;;;;;;;;;;5.47;82.72;97153.52;117016;1177;59520;-72
2021/09/24 04:51:28;;;;;;;;;;;;;;;5.49;81.83;97159.56;117040;1177;71627;-71
2021/09/24 04:53:57;;;;;;;;;;;;;;;5.51;82.66;97154.49;116937;1177;68268;-71
2021/09/24 04:56:25;;;;;;;;;;;;;;;5.54;82.22;97151.88;116987;1177;69140;-71
2021/09/24 04:58:54;;;;;;;;;;;;;;;5.58;81.37;97147.02;116994;1177;59500;-70
2021/09/24 05:01:23;;;;;;;;;;;;;;;5.62;81.74;97149.84;117027;1177;59524;-71
2021/09/24 05:03:52;;;;;;;;;;;;;;;5.69;81.31;97149.84;117152;1177;69720;-73
2021/09/24 05:06:21;;;;;;;;;;;;;;;5.75;81.15;97149.82;117192;1177;68210;-70
2021/09/24 05:08:50;;;;;;;;;;;;;;;5.80;81.51;97134.18;116993;1177;68270;-71
2021/09/24 05:11:22;;;;;;;;;;;;;;;5.85;81.07;97124.71;116950;1177;59529;-72
2021/09/24 05:13:55;;;;;;;;;;;;;;;5.92;80.51;97126.55;116989;1177;59538;-71
2021/09/24 05:16:28;;;;;;;;;;;;;;;5.99;80.41;97121.67;116996;1177;71829;-72
2021/09/24 05:18:56;;;;;;;;;;;;;;;6.03;81.09;97120.88;116992;1177;69189;-72
2021/09/24 05:21:25;;;;;;;;;;;;;;;6.06;80.87;97116.73;117006;1177;69262;-71
2021/09/24 05:23:54;;;;;;;;;;;;;;;6.11;80.32;97113.34;117007;1177;59484;-72
2021/09/24 05:26:23;;;;;;;;;;;;;;;6.15;80.68;97117.24;117011;1177;59480;-71
2021/09/24 05:28:52;;;;;;;;;;;;;;;6.27;81.31;97120.85;116932;1177;71182;-74
2021/09/24 05:31:21;;;;;;;;;;;;;;;6.57;80.09;97115.94;116982;1177;67324;-71
2021/09/24 05:33:51;;;;;;;;;;;;;;;6.95;79.34;97109.39;116804;1179;69338;-71
2021/09/24 05:36:20;;;;;;;;;;;;;;;7.36;77.79;97112.65;116960;1177;59487;-71
2021/09/24 05:38:49;;;;;;;;;;;;;;;7.57;76.32;97111.70;116994;1177;59539;-71
2021/09/24 05:41:17;;;;;;;;;;;;;;;7.64;76.71;97111.89;117101;1177;71156;-73
2021/09/24 05:43:48;;;;;;;;;;;;;;;7.76;76.70;97115.61;117092;1177;68517;-71
2021/09/24 05:46:18;;;;;;;;;;;;;;;8.08;75.36;97114.18;116935;1177;68129;-72
2021/09/24 05:48:47;;;;;;;;;;;;;;;8.68;73.96;97111.29;116975;1177;59491;-75
2021/09/24 05:51:16;;;;;;;;;;;;;;;9.16;74.63;97105.15;116976;1177;59526;-73
2021/09/24 05:53:45;;;;;;;;;;;;;;;9.44;73.43;97098.61;116970;1177;71235;-72
2021/09/24 05:56:13;;;;;;;;;;;;;;;9.73;70.84;97102.00;116996;1177;67700;-72
2021/09/24 05:58:42;;;;;;;;;;;;;;;10.02;69.58;97104.33;117023;1177;68893;-70
2021/09/24 06:01:11;;;;;;;;;;;;;;;10.27;68.75;97115.55;116832;1179;59603;-71
2021/09/24 06:03:40;;;;;;;;;;;;;;;10.71;68.37;97107.95;116965;1177;59917;-71
2021/09/24 06:06:09;;;;;;;;;;;;;;;10.94;69.09;97117.29;117025;1177;71154;-72
2021/09/24 06:08:38;;;;;;;;;;;;;;;11.02;67.61;97101.83;116962;1177;68563;-72
2021/09/24 06:11:06;;;;;;;;;;;;;;;10.98;65.05;97106.35;117001;1177;68500;-73
2021/09/24 06:13:35;;;;;;;;;;;;;;;11.12;65.99;97098.42;116956;1177;59542;-72
2021/09/24 06:16:06;;;;;;;;;;;;;;;11.21;64.07;97094.77;117058;1177;59542;-74
2021/09/24 06:18:35;;;;;;;;;;;;;;;11.20;63.60;97091.32;116963;1177;70678;-73
2021/09/24 06:21:04;;;;;;;;;;;;;;;11.51;63.24;97085.19;116952;1178;68557;-73
2021/09/24 06:23:33;;;;;;;;;;;;;;;11.86;62.26;97085.27;116936;1177;69263;-73
2021/09/24 06:26:03;;;;;;;;;;;;;;;12.25;61.22;97087.56;116953;1177;59521;-71
2021/09/24 06:28:32;;;;;;;;;;;;;;;12.65;58.83;97087.02;117071;1177;59944;-70
2021/09/24 06:31:01;;;;;;;;;;;;;;;12.84;58.41;97086.03;116908;1178;71505;-73
2021/09/24 06:33:30;;;;;;;;;;;;;;;13.23;56.17;97081.55;116982;1177;68761;-74
2021/09/24 06:35:59;;;;;;;;;;;;;;;13.59;54.63;97070.50;116897;1177;69222;-73
2021/09/24 06:38:29;;;;;;;;;;;;;;;13.73;54.35;97071.65;116977;1177;59556;-73
2021/09/24 06:40:58;;;;;;;;;;;;;;;14.06;53.80;97068.11;117085;1177;59529;-73
2021/09/24 06:43:27;;;;;;;;;;;;;;;13.95;52.89;97063.00;117090;1177;71225;-74
2021/09/24 06:45:55;;;;;;;;;;;;;;;13.87;53.57;97049.39;116970;1177;68815;-73
2021/09/24 06:48:24;;;;;;;;;;;;;;;14.14;52.80;97044.08;117054;1177;68497;-71
2021/09/24 06:50:53;;;;;;;;;;;;;;;14.67;50.81;97040.27;117059;1177;59542;-72
2021/09/24 06:53:22;;;;;;;;;;;;;;;13.92;53.02;97041.92;117036;1177;59505;-75
2021/09/24 06:55:51;;;;;;;;;;;;;;;14.17;52.50;97034.45;117020;1177;71381;-72
2021/09/24 06:58:19;;;;;;;;;;;;;;;13.91;52.70;97034.98;117006;1177;69005;-70
2021/09/24 07:00:48;;;;;;;;;;;;;;;13.60;54.53;97030.25;117021;1177;69050;-72
2021/09/24 07:03:17;;;;;;;;;;;;;;;13.02;55.73;97016.59;117029;1177;59603;-72
2021/09/24 07:05:46;;;;;;;;;;;;;;;12.80;57.42;97018.34;117036;1177;59548;-73
2021/09/24 07:08:15;;;;;;;;;;;;;;;13.81;54.43;97020.20;117033;1177;71404;-73
2021/09/24 07:10:44;;;;;;;;;;;;;;;13.53;54.91;97018.66;116925;1177;69122;-71
2021/09/24 07:13:13;;;;;;;;;;;;;;;13.04;56.66;97022.36;116971;1177;69261;-71
2021/09/24 07:15:43;;;;;;;;;;;;;;;13.24;56.42;97022.05;116952;1177;58750;-71
2021/09/24 07:18:12;;;;;;;;;;;;;;;13.08;56.16;97022.50;116994;1177;59589;-72
2021/09/24 07:20:41;;;;;;;;;;;;;;;13.49;54.83;97015.29;117042;1177;71226;-73
2021/09/24 07:23:20;;;;;;;;;;;;;;;14.02;53.99;97009.23;117049;1176;67751;-72
2021/09/24 07:25:50;;;;;;;;;;;;;;;14.26;53.58;97002.77;117038;1177;68438;-70
2021/09/24 07:28:19;;;;;;;;;;;;;;;14.71;52.62;96998.17;117017;1177;59488;-72
2021/09/24 07:30:48;;;;;;;;;;;;;;;14.03;53.24;96998.52;117037;1177;59538;-71
2021/09/24 07:33:16;;;;;;;;;;;;;;;14.34;53.01;96997.27;116948;1177;71292;-73
2021/09/24 07:35:45;;;;;;;;;;;;;;;14.22;53.01;96995.44;117026;1177;69131;-72
2021/09/24 07:38:16;;;;;;;;;;;;;;;14.07;53.65;96993.04;116987;1177;68349;-73
2021/09/24 07:40:45;;;;;;;;;;;;;;;14.56;53.47;96985.00;116996;1177;59558;-72
2021/09/24 07:43:15;;;;;;;;;;;;;;;14.36;53.21;96982.09;117021;1177;59561;-71
2021/09/24 07:45:43;;;;;;;;;;;;;;;14.21;53.62;96977.15;117057;1177;71345;-74
2021/09/24 07:48:12;;;;;;;;;;;;;;;14.59;52.57;96968.33;117023;1177;69187;-74
2021/09/24 07:50:41;;;;;;;;;;;;;;;14.48;52.50;96971.99;117036;1177;68401;-72
2021/09/24 07:53:10;;;;;;;;;;;;;;;14.34;53.87;96969.23;116957;1177;59525;-74
2021/09/24 07:55:38;;;;;;;;;;;;;;;14.94;52.63;96966.17;117030;1177;59899;-76
2021/09/24 07:58:08;;;;;;;;;;;;;;;14.87;51.84;96963.98;117058;1177;71349;-72
2021/09/24 08:00:37;;;;;;;;;;;;;;;14.22;53.64;96965.00;117027;1177;69068;-73
2021/09/24 08:03:06;;;;;;;;;;;;;;;13.93;54.38;96957.41;116998;1177;68860;-72
2021/09/24 08:05:35;;;;;;;;;;;;;;;13.65;55.33;96951.61;117009;1177;59494;-71
2021/09/24 08:08:05;;;;;;;;;;;;;;;13.76;55.75;96940.74;116980;1177;59943;-74
2021/09/24 08:10:33;;;;;;;;;;;;;;;13.71;56.17;96935.21;116971;1177;71195;-74
2021/09/24 08:13:03;;;;;;;;;;;;;;;13.62;55.59;96930.52;116832;1178;69217;-71
2021/09/24 08:15:34;;;;;;;;;;;;;;;13.45;55.82;96932.23;117003;1177;69196;-73
2021/09/24 08:18:03;;;;;;;;;;;;;;;13.47;56.31;96933.98;117005;1177;59538;-73
2021/09/24 08:20:31;;;;;;;;;;;;;;;13.21;56.87;96931.10;117034;1177;59532;-72
2021/09/24 08:23:01;;;;;;;;;;;;;;;13.17;56.97;96937.41;117002;1177;71212;-73
2021/09/24 08:25:29;;;;;;;;;;;;;;;13.14;57.10;96947.33;116960;1177;69536;-72
2021/09/24 08:27:58;;;;;;;;;;;;;;;13.01;57.58;96948.66;116912;1177;68471;-71
2021/09/24 08:30:28;;;;;;;;;;;;;;;12.97;57.53;96944.62;116938;1178;59559;-71
2021/09/24 08:32:57;;;;;;;;;;;;;;;12.95;57.55;96947.08;117057;1177;59502;-73
2021/09/24 08:35:25;;;;;;;;;;;;;;;12.98;57.58;96941.58;117012;1177;71611;-72
2021/09/24 08:37:55;;;;;;;;;;;;;;;13.03;57.98;96943.55;116878;1178;68288;-71
2021/09/24 08:40:26;;;;;;;;;;;;;;;12.90;58.06;96945.77;116961;1177;69162;-71
2021/09/24 08:42:55;;;;;;;;;;;;;;;12.98;58.50;96948.08;116904;1178;59548;-72
2021/09/24 08:45:26;;;;;;;;;;;;;;;12.99;59.25;96941.83;116953;1177;59535;-73
2021/09/24 08:48:05;;;;;;;;;;;;;;;13.00;59.34;96941.91;117039;1177;71580;-71
2021/09/24 08:50:36;;;;;;;;;;;;;;;13.06;58.86;96943.09;117022;1177;68484;-71
2021/09/24 08:53:07;;;;;;;;;;;;;;;13.14;59.32;96940.64;117001;1177;67780;-72
2021/09/24 08:55:35;;;;;;;;;;;;;;;13.23;59.01;96940.16;117046;1177;59538;-72
2021/09/24 08:58:04;;;;;;;;;;;;;;;13.34;58.94;96935.21;117017;1177;59525;-74
2021/09/24 09:00:33;;;;;;;;;;;;;;;13.31;59.00;96931.30;116931;1177;71487;-71
2021/09/24 09:03:07;;;;;;;;;;;;;;;13.29;59.29;96921.59;116892;1177;68569;-72
2021/09/24 09:05:50;;;;;;;;;;;;;;;13.15;59.31;96913.08;116977;1176;69024;-71
2021/09/24 09:08:19;;;;;;;;;;;;;;;13.18;59.46;96908.59;116999;1177;59560;-72
2021/09/24 09:10:56;;;;;;;;;;;;;;;13.26;59.59;96915.23;117030;1177;59535;-71
2021/09/24 09:13:28;;;;;;;;;;;;;;;13.20;59.42;96909.66;117069;1177;71178;-73
2021/09/24 09:16:12;;;;;;;;;;;;;;;13.16;59.56;96903.90;116979;1177;69168;-73
2021/09/24 09:18:42;;;;;;;;;;;;;;;13.02;59.36;96903.70;116962;1178;68543;-73
2021/09/24 09:21:13;;;;;;;;;;;;;;;13.07;59.10;96908.89;116987;1177;59545;-75
2021/09/24 09:23:45;;;;;;;;;;;;;;;13.11;59.25;96913.65;116947;1177;59551;-72
2021/09/24 09:26:15;;;;;;;;;;;;;;;13.17;59.33;96917.60;117076;1177;71207;-72
2021/09/24 09:28:52;;;;;;;;;;;;;;;13.28;59.30;96919.77;116993;1177;68569;-71
2021/09/24 09:31:29;;;;;;;;;;;;;;;13.30;58.25;96922.80;117093;1177;68332;-73
2021/09/24 09:33:59;;;;;;;;;;;;;;;13.30;58.14;96917.59;117191;1177;59527;-73
2021/09/24 09:36:33;;;;;;;;;;;;;;;13.21;58.22;96916.54;117040;1177;59453;-73
2021/09/24 09:39:12;;;;;;;;;;;;;;;13.23;58.80;96919.48;117059;1177;70653;-72
2021/09/24 09:41:52;;;;;;;;;;;;;;;13.32;58.96;96924.19;117098;1177;68728;-71
2021/09/24 09:44:24;;;;;;;;;;;;;;;13.38;59.65;96929.59;117110;1177;68630;-73
2021/09/24 09:46:53;;;;;;;;;;;;;;;13.45;59.56;96934.54;117004;1178;59545;-72
2021/09/24 09:49:24;;;;;;;;;;;;;;;13.49;59.85;96937.09;116898;1177;59518;-72
2021/09/24 09:52:13;;;;;;;;;;;;;;;13.51;59.43;96935.34;116877;1177;70664;-73
2021/09/24 09:55:01;;;;;;;;;;;;;;;13.52;59.03;96935.92;116947;1177;69268;-72
2021/09/24 09:57:33;;;;;;;;;;;;;;;13.57;59.52;96938.52;116900;1177;69366;-73
2021/09/24 10:00:03;;;;;;;;;;;;;;;13.56;59.10;96940.67;116884;1179;59525;-72
2021/09/24 10:02:35;;;;;;;;;;;;;;;13.54;59.71;96945.21;116942;1178;59467;-72
2021/09/24 10:05:04;;;;;;;;;;;;;;;13.56;61.45;96953.09;116799;1179;71487;-73
2021/09/24 10:07:37;;;;;;;;;;;;;;;13.48;62.61;96960.89;116852;1178;69043;-72
2021/09/24 10:10:08;;;;;;;;;;;;;;;13.41;63.44;96966.73;117019;1178;68368;-72
2021/09/24 10:12:37;;;;;;;;;;;;;;;13.33;64.59;96974.29;116966;1178;59513;-72
2021/09/24 10:15:11;;;;;;;;;;;;;;;13.22;65.17;96976.98;116945;1178;59548;-72
2021/09/24 10:17:40;;;;;;;;;;;;;;;13.07;65.52;96977.64;116866;1179;70430;-72
2021/09/24 10:20:10;;;;;;;;;;;;;;;12.92;66.07;96973.23;116661;1180;69361;-72
2021/09/24 10:22:40;;;;;;;;;;;;;;;12.81;66.88;96967.71;116952;1177;69167;-71
2021/09/24 10:25:09;;;;;;;;;;;;;;;12.69;66.67;96964.72;116908;1177;59510;-71
2021/09/24 10:27:41;;;;;;;;;;;;;;;12.61;67.36;96960.42;116969;1178;59542;-72
2021/09/24 10:30:12;;;;;;;;;;;;;;;12.53;67.22;96960.05;116884;1178;71355;-72
2021/09/24 10:33:01;;;;;;;;;;;;;;;12.47;68.38;96950.46;116887;1179;69095;-73
2021/09/24 10:35:51;;;;;;;;;;;;;;;12.41;68.14;96949.40;116835;1179;69461;-75
2021/09/24 10:38:21;;;;;;;;;;;;;;;12.34;68.16;96943.91;116857;1179;59509;-71
2021/09/24 10:41:02;;;;;;;;;;;;;;;12.32;68.42;96946.91;116885;1178;59530;-72
2021/09/24 10:43:46;;;;;;;;;;;;;;;12.28;69.29;96941.16;116893;1179;71405;-71
2021/09/24 10:46:23;;;;;;;;;;;;;;;12.25;69.64;96939.30;116811;1178;69295;-73
2021/09/24 10:49:11;;;;;;;;;;;;;;;12.19;70.36;96940.29;116910;1178;69271;-72
2021/09/24 10:51:45;;;;;;;;;;;;;;;12.10;70.40;96934.43;116941;1177;59560;-73
2021/09/24 10:54:15;;;;;;;;;;;;;;;12.06;70.79;96936.54;116939;1177;59507;-71
2021/09/24 10:57:02;;;;;;;;;;;;;;;11.99;70.72;96932.40;116951;1177;71235;-73
2021/09/24 10:59:33;;;;;;;;;;;;;;;11.98;70.94;96927.13;116885;1178;69266;-73
2021/09/24 11:02:21;;;;;;;;;;;;;;;11.89;71.50;96928.74;116918;1178;69162;-72
2021/09/24 11:04:51;;;;;;;;;;;;;;;11.84;71.23;96933.39;116881;1178;59533;-72
2021/09/24 11:07:30;;;;;;;;;;;;;;;11.81;71.13;96931.73;116951;1177;59477;-71
2021/09/24 11:10:00;;;;;;;;;;;;;;;11.72;72.30;96925.83;116919;1178;71304;-72
2021/09/24 11:12:29;;;;;;;;;;;;;;;11.68;72.55;96923.34;117072;1177;68398;-73
2021/09/24 11:15:05;;;;;;;;;;;;;;;11.64;72.70;96934.17;116938;1177;68504;-72
2021/09/24 11:17:46;;;;;;;;;;;;;;;11.61;72.06;96931.81;116909;1179;59532;-72
2021/09/24 11:20:24;;;;;;;;;;;;;;;11.56;73.86;96940.81;117037;1177;59532;-72
2021/09/24 11:22:53;;;;;;;;;;;;;;;11.51;74.04;96944.34;116887;1178;70644;-72
2021/09/24 11:25:22;;;;;;;;;;;;;;;11.45;74.94;96945.40;116985;1177;68425;-74
2021/09/24 11:27:53;;;;;;;;;;;;;;;11.38;75.32;96944.94;116896;1178;69199;-74
2021/09/24 11:30:26;;;;;;;;;;;;;;;11.29;76.02;96945.89;116865;1180;59501;-72
2021/09/24 11:32:56;;;;;;;;;;;;;;;11.26;74.64;96949.40;116975;1177;59525;-72
2021/09/24 11:35:38;;;;;;;;;;;;;;;11.24;75.44;96949.77;116937;1179;71449;-72
2021/09/24 11:38:14;;;;;;;;;;;;;;;11.20;75.66;96950.35;116934;1178;68712;-73
2021/09/24 11:40:57;;;;;;;;;;;;;;;11.07;77.37;96950.61;116820;1178;68380;-71
2021/09/24 11:43:29;;;;;;;;;;;;;;;10.98;78.31;96952.73;116895;1179;59537;-72
2021/09/24 11:45:59;;;;;;;;;;;;;;;10.87;79.58;96954.36;116971;1178;59530;-73
2021/09/24 11:48:30;;;;;;;;;;;;;;;10.83;79.08;96957.95;116918;1178;70710;-73
2021/09/24 11:51:12;;;;;;;;;;;;;;;10.81;79.13;96963.25;116998;1177;69311;-72
2021/09/24 11:53:52;;;;;;;;;;;;;;;10.80;78.64;96962.63;116951;1178;69104;-72
2021/09/24 11:56:31;;;;;;;;;;;;;;;10.82;78.39;96964.88;116963;1177;59504;-71
2021/09/24 11:59:01;;;;;;;;;;;;;;;10.85;77.90;96967.91;116922;1178;59552;-72
2021/09/24 12:01:30;;;;;;;;;;;;;;;10.88;77.44;96967.00;116914;1178;71164;-71
2021/09/24 12:04:00;;;;;;;;;;;;;;;10.89;77.57;96969.52;116987;1177;69167;-74
2021/09/24 12:06:36;;;;;;;;;;;;;;;10.84;78.17;96976.59;116968;1177;68582;-72
2021/09/24 12:09:09;;;;;;;;;;;;;;;10.82;78.47;96979.00;116942;1177;59498;-72
2021/09/24 12:11:41;;;;;;;;;;;;;;;10.81;77.76;96978.73;116692;1180;59512;-72
2021/09/24 12:14:12;;;;;;;;;;;;;;;10.77;78.86;96975.22;117004;1177;71387;-73
2021/09/24 12:16:42;;;;;;;;;;;;;;;10.63;79.89;96974.74;117020;1177;69061;-71
2021/09/24 12:19:21;;;;;;;;;;;;;;;10.54;80.94;96975.11;116979;1177;68492;-73
2021/09/24 12:21:56;;;;;;;;;;;;;;;10.49;81.24;96975.86;116961;1177;59535;-73
2021/09/24 12:24:33;;;;;;;;;;;;;;;10.44;81.35;96976.95;116948;1178;59538;-73
2021/09/24 12:27:04;;;;;;;;;;;;;;;10.42;80.66;96976.09;116985;1177;71450;-74
2021/09/24 12:29:33;;;;;;;;;;;;;;;10.45;79.99;96983.52;116895;1179;69048;-72
2021/09/24 12:32:10;;;;;;;;;;;;;;;10.44;79.85;96986.91;116954;1177;68945;-72
2021/09/24 12:35:05;;;;;;;;;;;;;;;10.35;81.46;96984.46;116925;1179;59543;-74
2021/09/24 12:37:42;;;;;;;;;;;;;;;10.39;80.31;96987.81;116908;1179;59540;-69
2021/09/24 12:40:12;;;;;;;;;;;;;;;10.41;80.01;96997.55;116902;1179;71296;-74
2021/09/24 12:42:43;;;;;;;;;;;;;;;10.39;81.55;96999.69;116971;1178;69136;-74
2021/09/24 12:45:32;;;;;;;;;;;;;;;10.41;80.62;97001.91;116966;1177;68519;-72
2021/09/24 12:48:14;;;;;;;;;;;;;;;10.44;79.71;97004.30;116966;1178;59511;-72
2021/09/24 12:50:44;;;;;;;;;;;;;;;10.42;80.23;97011.65;116867;1178;59590;-73
2021/09/24 12:53:16;;;;;;;;;;;;;;;10.42;79.91;97010.41;116911;1177;71475;-74
2021/09/24 12:55:45;;;;;;;;;;;;;;;10.37;80.55;97005.91;116937;1178;69279;-73
2021/09/24 12:58:14;;;;;;;;;;;;;;;10.32;81.01;97007.73;117016;1177;69075;-74
2021/09/24 13:00:43;;;;;;;;;;;;;;;10.31;80.56;97009.73;117047;1177;59587;-71